Pfafftown, NC

4:00 PM EST on November 27, 2014 (GMT -0500)
Davidson County | Change Station
CLOSE
Current Station
Airport
Location: Lexington,
Elevation: 732 ft
Nearby Weather Stations

Elev 732 ft 35.78 °N, 80.30 °W | Updated 25 minutes ago

Mostly Cloudy
Mostly Cloudy
46 °F
Feels Like 43 °F
N
6
Wind Variable Wind from WNW

Today
High -- | Low -- °F
--% Chance of Precip.
Yesterday
High -- | Low -- °F
Precip. -- in
7:10 AM 5:07 PM
Waxing Crescent, 33% visible
Pressure 30.12 in
Visibility 10.0 miles
Clouds Scattered Clouds 4900 ft
Overcast 6500 ft
Windchill 43 °F
Dew Point 28 °F
Humidity 51%
Rainfall 0.10 in
Snow Depth Not available.
UV 0 out of 12
Pollen .30 out of 12
Air Quality Not available.
Flu Activity Not available.
METAR KEXX 272035Z AUTO 30005KT 10SM SCT049 OVC065 08/M02 A3012 RMK AO2 T00761021

More Conditions Fewer Conditions

Pressure 30.12 in
Visibility 10.0 miles
Clouds Scattered Clouds 4900 ft
Overcast 6500 ft
Windchill 43 °F
Dew Point 28 °F
Humidity 51%
Rainfall 0.10 in
Snow Depth Not available.
UV 0 out of 12
Pollen .30 out of 12
Air Quality Not available.
Flu Activity Not available.
METAR KEXX 272035Z AUTO 30005KT 10SM SCT049 OVC065 08/M02 A3012 RMK AO2 T00761021

More Conditions Fewer Conditions

10-Day Weather Forecast

Almanac

Astronomy

Nov. 27, 2014 Rise Set
Actual Time
Civil Twilight
Nautical Twilight
Astronomical Twilight
Moon
Length of Visible Light
Length of Day
Tomorrow will be .
, % of the Moon is Illuminated

Today's Extremes

State Highs State Lows

Community

WunderPhotos

Upload Photos

1,774,104 photos uploaded!

WunderBlogs® & News

Nearby

Air Quality

  Air Quality AQ Index Pollutant
Not available.

Snow Depth

Station Depth Elevation

Earthquake Activity

City Distance Mag. Time & Date
Minimum magnitude displayed is 2.5.

Coastal Water Temperatures

Place Temperature

Nearby Weather Stations